createdAt,value
2023-01-25T10:33:56.679Z,92.46
2023-01-25T10:37:12.673Z,92.42
2023-01-25T10:40:24.185Z,92.51
2023-01-25T10:43:30.806Z,92.41
2023-01-25T10:46:37.869Z,92.33
2023-01-25T10:49:48.720Z,92.37
2023-01-25T10:53:01.514Z,92.35
2023-01-25T10:56:23.932Z,92.38
2023-01-25T10:59:31.410Z,92.35
2023-01-25T11:02:46.040Z,92.12
2023-01-25T11:05:56.745Z,91.82
2023-01-25T11:09:03.335Z,91.81
2023-01-25T11:12:19.839Z,91.95
2023-01-25T11:15:29.178Z,91.68
2023-01-25T11:18:36.468Z,91.70
2023-01-25T11:21:55.032Z,91.73
2023-01-25T11:25:26.486Z,92.02
2023-01-25T11:28:32.437Z,92.18
2023-01-25T11:31:42.027Z,92.07
2023-01-25T11:34:48.609Z,91.80
2023-01-25T11:38:13.930Z,91.84
2023-01-25T11:41:28.005Z,91.68
2023-01-25T11:45:03.479Z,91.64
2023-01-25T11:48:26.777Z,91.25
2023-01-25T11:51:41.428Z,91.34
2023-01-25T11:54:54.900Z,91.43
2023-01-25T11:58:13.703Z,91.35
2023-01-25T12:01:28.157Z,91.45
2023-01-25T12:05:02.279Z,91.37
2023-01-25T12:08:21.635Z,91.19
2023-01-25T12:11:42.133Z,91.49
2023-01-25T12:15:08.489Z,91.35
2023-01-25T12:18:41.218Z,90.92
2023-01-25T12:22:03.819Z,91.01
2023-01-25T12:25:22.797Z,91.20
2023-01-25T12:28:35.127Z,90.94
2023-01-25T12:31:51.575Z,90.84
2023-01-25T12:35:05.531Z,90.84
2023-01-25T12:38:17.233Z,90.71
2023-01-25T12:41:32.610Z,90.38
2023-01-25T12:44:43.201Z,90.42
2023-01-25T12:47:53.642Z,90.54
2023-01-25T12:51:01.041Z,90.81
2023-01-25T12:54:14.152Z,90.59
2023-01-25T12:57:30.451Z,90.65
2023-01-25T13:00:45.830Z,90.16
2023-01-25T13:04:04.807Z,90.37
2023-01-25T13:07:19.232Z,90.27
2023-01-25T13:10:30.791Z,90.19
2023-01-25T13:13:37.143Z,90.11
2023-01-25T13:16:43.345Z,90.18
2023-01-25T13:19:50.525Z,90.42
2023-01-25T13:23:01.466Z,90.41
2023-01-25T13:26:48.615Z,90.30
2023-01-25T13:30:03.454Z,90.07
2023-01-25T13:33:09.567Z,90.21
2023-01-25T13:36:47.503Z,90.15
2023-01-25T13:39:55.742Z,89.89
2023-01-25T13:43:07.675Z,89.87
2023-01-25T13:46:17.198Z,89.87
2023-01-25T13:49:29.659Z,90.02
2023-01-25T13:52:35.930Z,89.96
2023-01-25T13:55:44.316Z,90.14
2023-01-25T13:58:50.596Z,89.92
2023-01-25T14:01:55.044Z,89.68
2023-01-25T14:05:02.103Z,89.79
2023-01-25T14:08:14.268Z,89.70
2023-01-25T14:11:23.936Z,89.79
2023-01-25T14:14:33.141Z,89.88
2023-01-25T14:17:39.429Z,89.52
2023-01-25T14:20:44.361Z,89.27
2023-01-25T14:23:52.359Z,89.57
2023-01-25T14:26:58.895Z,89.61
2023-01-25T14:30:07.474Z,89.34
2023-01-25T14:33:23.315Z,89.41
2023-01-25T14:36:34.568Z,89.61
2023-01-25T14:39:40.856Z,89.62
2023-01-25T14:42:47.191Z,89.63
2023-01-25T14:45:51.914Z,89.21
2023-01-25T14:49:18.037Z,88.58
2023-01-25T14:52:28.719Z,89.04
2023-01-25T14:55:34.928Z,88.89
2023-01-25T14:58:45.316Z,88.75
2023-01-25T15:01:55.828Z,88.79
2023-01-25T15:05:14.944Z,88.87
2023-01-25T15:08:31.333Z,88.81
2023-01-25T15:11:45.537Z,88.64
2023-01-25T15:14:53.546Z,88.70
2023-01-25T15:18:00.266Z,88.60
2023-01-25T15:21:06.728Z,88.71
2023-01-25T15:24:15.252Z,88.72
2023-01-25T15:27:25.216Z,88.48
2023-01-25T15:30:31.550Z,88.47
2023-01-25T15:33:36.216Z,88.35
2023-01-25T15:36:42.181Z,88.47
2023-01-25T15:39:48.368Z,88.52
2023-01-25T15:42:55.697Z,88.61
2023-01-25T15:46:02.765Z,88.45
2023-01-25T15:49:10.093Z,88.05
2023-01-25T15:52:16.564Z,88.06
2023-01-25T15:55:23.029Z,87.88
2023-01-25T15:58:31.861Z,87.83
2023-01-25T16:01:38.173Z,87.96
2023-01-25T16:04:43.437Z,87.87
2023-01-25T16:07:49.834Z,87.83
2023-01-25T16:10:56.110Z,87.86
2023-01-25T16:14:00.599Z,88.07
2023-01-25T16:17:07.667Z,88.04
2023-01-25T16:20:21.062Z,87.95
2023-01-25T16:23:27.252Z,87.74
2023-01-25T16:26:33.808Z,87.69
2023-01-25T16:29:39.843Z,87.79
2023-01-25T16:32:46.752Z,87.79
2023-01-25T16:36:12.361Z,87.52
2023-01-25T16:39:20.718Z,87.83
2023-01-25T16:42:27.056Z,87.94
2023-01-25T16:45:32.114Z,87.82
2023-01-25T16:48:38.371Z,87.77
2023-01-25T16:51:42.806Z,87.82
2023-01-25T16:54:49.046Z,87.76
2023-01-25T16:57:53.418Z,87.73
2023-01-25T17:00:59.619Z,87.68
2023-01-25T17:04:05.967Z,87.72
2023-01-25T17:07:12.277Z,87.75
2023-01-25T17:10:19.393Z,87.74
2023-01-25T17:13:25.809Z,87.77
2023-01-25T17:16:33.603Z,87.65
2023-01-25T17:19:39.885Z,87.65
2023-01-25T17:22:49.722Z,87.67
2023-01-25T17:25:56.550Z,87.52
2023-01-25T17:29:03.495Z,87.50
2023-01-25T17:32:09.607Z,87.55
2023-01-25T17:35:15.952Z,87.68
2023-01-25T17:38:20.506Z,87.40
2023-01-25T17:41:26.700Z,87.31
2023-01-25T17:44:33.128Z,87.43
2023-01-25T17:47:39.448Z,87.37
2023-01-25T17:50:44.060Z,87.39
2023-01-25T17:53:50.434Z,87.38
2023-01-25T17:56:56.738Z,87.29
2023-01-25T18:00:03.287Z,87.29
2023-01-25T18:03:10.052Z,87.09
2023-01-25T18:06:19.116Z,87.30
2023-01-25T18:09:25.890Z,87.13
2023-01-25T18:12:32.129Z,87.25
2023-01-25T18:15:38.369Z,87.32
2023-01-25T18:18:43.621Z,87.22
2023-01-25T18:21:49.898Z,87.27
2023-01-25T18:24:54.446Z,87.18
2023-01-25T18:28:00.728Z,87.29
2023-01-25T18:31:06.342Z,87.25
2023-01-25T18:34:12.500Z,87.09
2023-01-25T18:37:20.477Z,87.13
2023-01-25T18:40:27.084Z,87.19
2023-01-25T18:43:33.557Z,87.10
2023-01-25T18:46:40.739Z,86.71
2023-01-25T18:49:47.371Z,86.71
2023-01-25T18:52:54.349Z,86.69
2023-01-25T18:56:07.248Z,86.55
2023-01-25T18:59:13.532Z,86.77
2023-01-25T19:02:18.328Z,86.80
2023-01-25T19:05:24.296Z,86.79
2023-01-25T19:08:32.502Z,86.76
2023-01-25T19:11:38.843Z,86.47
2023-01-25T19:14:43.401Z,86.59
2023-01-25T19:17:49.622Z,86.70
2023-01-25T19:20:55.608Z,86.87
2023-01-25T19:24:02.142Z,86.80
2023-01-25T19:27:08.443Z,86.92
2023-01-25T19:30:13.999Z,86.94
2023-01-25T19:33:20.227Z,86.86
2023-01-25T19:36:26.720Z,86.86
2023-01-25T19:39:32.987Z,86.91
2023-01-25T19:42:39.269Z,87.06
2023-01-25T19:45:43.682Z,86.80
2023-01-25T19:48:51.808Z,86.95
2023-01-25T19:51:58.013Z,86.94
2023-01-25T19:55:04.387Z,86.92
2023-01-25T19:58:09.883Z,87.05
2023-01-25T20:01:17.369Z,86.82
2023-01-25T20:04:25.135Z,86.42
2023-01-25T20:07:32.517Z,86.61
2023-01-25T20:10:38.782Z,86.57
2023-01-25T20:13:43.535Z,86.56
2023-01-25T20:16:52.644Z,86.54
2023-01-25T20:19:58.986Z,86.79
2023-01-25T20:23:03.286Z,86.91
2023-01-25T20:26:13.789Z,86.79
2023-01-25T20:29:21.604Z,86.57
2023-01-25T20:32:33.138Z,86.33
2023-01-25T20:35:39.604Z,86.29
2023-01-25T20:38:46.385Z,86.27
2023-01-25T20:41:53.765Z,86.27
2023-01-25T20:44:59.967Z,85.83
2023-01-25T20:48:06.611Z,85.81
2023-01-25T20:51:14.630Z,85.79
2023-01-25T20:54:21.789Z,86.06
2023-01-25T20:57:27.768Z,86.24
2023-01-25T21:00:34.063Z,86.20
2023-01-25T21:03:38.580Z,86.18
2023-01-25T21:06:44.817Z,85.94
2023-01-25T21:09:51.069Z,85.74
2023-01-25T21:12:55.617Z,85.85
2023-01-25T21:16:03.615Z,85.59
2023-01-25T21:19:10.008Z,85.75
2023-01-25T21:22:14.643Z,85.80
2023-01-25T21:25:20.830Z,86.00
2023-01-25T21:28:27.260Z,85.86
2023-01-25T21:31:36.079Z,85.89
2023-01-25T21:34:42.564Z,85.66
2023-01-25T21:37:50.397Z,85.66
2023-01-25T21:41:03.006Z,85.55
2023-01-25T21:44:26.960Z,85.74
2023-01-25T21:47:34.043Z,85.90
2023-01-25T21:50:59.151Z,86.05
2023-01-25T21:54:05.504Z,85.88
2023-01-25T21:57:11.696Z,85.60
2023-01-25T22:00:20.519Z,85.67
2023-01-25T22:03:26.900Z,85.63
2023-01-25T22:06:31.504Z,85.34
2023-01-25T22:09:37.770Z,85.43
2023-01-25T22:12:42.324Z,85.80
2023-01-25T22:15:48.582Z,85.94
2023-01-25T22:18:53.170Z,85.95
2023-01-25T22:21:59.217Z,86.09
2023-01-25T22:25:05.731Z,85.65
2023-01-25T22:28:17.317Z,85.40
2023-01-25T22:31:25.088Z,85.43
2023-01-25T22:34:31.512Z,85.34
2023-01-25T22:37:38.167Z,85.35
2023-01-25T22:40:44.425Z,85.26
2023-01-25T22:43:48.703Z,85.35
2023-01-25T22:46:55.024Z,85.55
2023-01-25T22:49:59.573Z,85.46
2023-01-25T22:53:05.822Z,85.52
2023-01-25T22:56:12.031Z,85.43
2023-01-25T22:59:19.414Z,85.58
2023-01-25T23:02:25.546Z,85.50
2023-01-25T23:05:32.076Z,85.66
2023-01-25T23:08:40.267Z,85.73
2023-01-25T23:11:46.233Z,85.66
2023-01-25T23:14:55.298Z,85.80
2023-01-25T23:18:18.972Z,85.78
2023-01-25T23:21:27.362Z,85.65
2023-01-25T23:24:33.700Z,85.71
2023-01-25T23:27:38.444Z,85.71
2023-01-25T23:30:44.610Z,85.67
2023-01-25T23:33:52.232Z,85.52
2023-01-25T23:36:58.539Z,85.54
2023-01-25T23:40:03.122Z,85.68
2023-01-25T23:43:09.385Z,85.49
2023-01-25T23:46:15.461Z,85.34
2023-01-25T23:49:21.732Z,84.98
2023-01-25T23:52:28.879Z,85.05
2023-01-25T23:55:35.198Z,85.28
2023-01-25T23:58:40.574Z,85.15
